createdAt,value
2022-09-14T00:01:49.219Z,11.54
2022-09-14T00:06:52.714Z,11.48
2022-09-14T00:11:56.598Z,11.43
2022-09-14T00:17:00.023Z,11.36
2022-09-14T00:22:06.215Z,11.35
2022-09-14T00:27:10.939Z,11.35
2022-09-14T00:32:14.186Z,11.35
2022-09-14T00:37:17.465Z,11.33
2022-09-14T00:42:21.644Z,11.29
2022-09-14T00:47:26.603Z,11.25
2022-09-14T00:52:41.055Z,11.25
2022-09-14T00:57:47.941Z,11.26
2022-09-14T01:02:52.442Z,11.26
2022-09-14T01:08:09.131Z,11.26
2022-09-14T01:13:34.434Z,11.29
2022-09-14T01:18:45.245Z,11.30
2022-09-14T01:23:51.267Z,11.30
2022-09-14T01:28:57.294Z,11.28
2022-09-14T01:34:16.630Z,11.29
2022-09-14T01:39:23.647Z,11.30
2022-09-14T01:44:34.819Z,11.33
2022-09-14T01:49:44.498Z,11.33
2022-09-14T01:54:57.503Z,11.34
2022-09-14T02:00:12.383Z,11.30
2022-09-14T02:05:33.758Z,11.28
2022-09-14T02:10:38.017Z,11.30
2022-09-14T02:15:41.471Z,11.29
2022-09-14T02:20:54.224Z,11.29
2022-09-14T02:25:58.927Z,11.26
2022-09-14T02:31:21.341Z,11.25
2022-09-14T02:36:44.981Z,11.34
2022-09-14T02:41:57.212Z,11.44
2022-09-14T02:47:26.285Z,11.45
2022-09-14T02:52:37.575Z,11.48
2022-09-14T02:58:01.171Z,11.41
2022-09-14T03:03:09.845Z,11.35
2022-09-14T03:08:13.494Z,11.32
2022-09-14T03:13:16.823Z,11.26
2022-09-14T03:18:20.169Z,11.17
2022-09-14T03:23:23.713Z,11.12
2022-09-14T03:28:26.929Z,11.12
2022-09-14T03:33:30.626Z,11.17
2022-09-14T03:38:33.807Z,11.26
2022-09-14T03:43:37.479Z,11.28
2022-09-14T03:48:41.238Z,11.29
2022-09-14T03:53:45.560Z,11.30
2022-09-14T03:58:50.210Z,11.31
2022-09-14T04:03:53.520Z,11.35
2022-09-14T04:08:56.923Z,11.43
2022-09-14T04:14:05.073Z,11.49
2022-09-14T04:19:09.498Z,11.49
2022-09-14T04:24:15.502Z,11.44
2022-09-14T04:29:19.451Z,11.46
2022-09-14T04:34:22.977Z,11.55
2022-09-14T04:39:26.670Z,11.68
2022-09-14T04:44:33.168Z,11.86
2022-09-14T04:49:36.470Z,12.07
2022-09-14T04:54:39.983Z,12.33
2022-09-14T04:59:46.641Z,12.65
2022-09-14T05:04:51.174Z,12.86
2022-09-14T05:09:58.261Z,12.99
2022-09-14T05:15:01.792Z,13.09
2022-09-14T05:20:05.804Z,13.20
2022-09-14T05:25:09.838Z,13.32
2022-09-14T05:30:13.891Z,13.49
2022-09-14T05:35:40.663Z,13.67
2022-09-14T05:41:09.033Z,13.86
2022-09-14T05:46:31.692Z,14.28
2022-09-14T05:51:35.818Z,15.76
2022-09-14T05:56:41.854Z,16.77
2022-09-14T06:02:17.973Z,18.10
2022-09-14T06:07:21.993Z,18.96
2022-09-14T06:12:27.800Z,18.62
2022-09-14T06:17:31.673Z,19.51
2022-09-14T06:22:35.096Z,19.73
2022-09-14T06:27:38.621Z,20.86
2022-09-14T06:32:45.769Z,21.73
2022-09-14T06:37:53.478Z,22.38
2022-09-14T06:43:02.805Z,23.14
2022-09-14T06:48:09.239Z,23.94
2022-09-14T06:53:12.549Z,24.90
2022-09-14T06:58:15.767Z,24.78
2022-09-14T07:03:19.993Z,23.94
2022-09-14T07:08:23.634Z,23.48
2022-09-14T07:13:28.535Z,23.31
2022-09-14T07:18:35.773Z,22.44
2022-09-14T07:23:42.192Z,21.67
2022-09-14T07:28:48.986Z,21.84
2022-09-14T07:33:55.503Z,22.54
2022-09-14T07:39:02.663Z,22.37
2022-09-14T07:44:08.591Z,21.67
2022-09-14T07:49:13.179Z,21.54
2022-09-14T07:54:18.266Z,21.73
2022-09-14T07:59:35.504Z,22.32
2022-09-14T08:04:39.692Z,22.91
2022-09-14T08:09:43.026Z,22.19
2022-09-14T08:14:47.086Z,21.59
2022-09-14T08:19:52.587Z,21.49
2022-09-14T08:24:55.711Z,21.45
2022-09-14T08:29:58.877Z,21.54
2022-09-14T08:35:02.898Z,21.49
2022-09-14T08:40:06.671Z,21.52
2022-09-14T08:45:15.421Z,21.46
2022-09-14T08:50:22.293Z,21.22
2022-09-14T08:55:34.745Z,20.91
2022-09-14T09:00:42.191Z,20.60
2022-09-14T09:06:15.638Z,20.36
2022-09-14T09:11:23.470Z,20.26
2022-09-14T09:16:29.170Z,20.80
2022-09-14T09:21:39.147Z,21.52
2022-09-14T09:26:43.434Z,21.79
2022-09-14T09:31:56.334Z,21.62
2022-09-14T09:37:01.169Z,21.62
2022-09-14T09:42:13.575Z,22.05
2022-09-14T09:47:16.808Z,22.53
2022-09-14T09:52:19.954Z,22.53
2022-09-14T09:57:36.318Z,22.69
2022-09-14T10:02:41.440Z,22.57
2022-09-14T10:07:49.714Z,22.53
2022-09-14T10:12:57.521Z,22.45
2022-09-14T10:18:14.166Z,22.35
2022-09-14T10:23:20.273Z,22.34
2022-09-14T10:28:29.530Z,22.28
2022-09-14T10:33:33.699Z,22.21
2022-09-14T10:38:53.172Z,22.11
2022-09-14T10:44:24.431Z,22.09
2022-09-14T10:49:45.002Z,22.08
2022-09-14T10:54:58.911Z,21.94
2022-09-14T11:00:15.056Z,21.65
2022-09-14T11:05:27.542Z,21.14
2022-09-14T11:10:52.674Z,20.65
2022-09-14T11:16:17.860Z,20.25
2022-09-14T11:21:44.216Z,19.90
2022-09-14T11:26:56.384Z,19.63
2022-09-14T11:32:22.564Z,19.49
2022-09-14T11:37:50.867Z,19.44
2022-09-14T11:43:15.853Z,19.68
2022-09-14T11:48:51.736Z,19.92
2022-09-14T11:53:55.035Z,20.18
2022-09-14T11:59:01.473Z,20.47
2022-09-14T12:04:06.845Z,20.68
2022-09-14T12:09:24.803Z,20.53
2022-09-14T12:14:40.919Z,20.39
2022-09-14T12:19:49.786Z,20.27
2022-09-14T12:25:04.686Z,20.27
2022-09-14T12:30:40.417Z,20.22
2022-09-14T12:35:46.718Z,20.18
2022-09-14T12:40:50.889Z,20.16
2022-09-14T12:46:01.279Z,20.14
2022-09-14T12:51:05.862Z,20.33
2022-09-14T12:56:23.908Z,20.44
2022-09-14T13:01:32.085Z,20.55
2022-09-14T13:06:44.002Z,20.68
2022-09-14T13:11:53.489Z,20.95
2022-09-14T13:16:59.780Z,21.05
2022-09-14T13:22:03.442Z,20.80
2022-09-14T13:27:17.370Z,20.59
2022-09-14T13:32:24.226Z,20.60
2022-09-14T13:37:27.719Z,20.61
2022-09-14T13:42:30.995Z,20.41
2022-09-14T13:47:39.512Z,20.25
2022-09-14T13:53:01.405Z,20.20
2022-09-14T13:58:07.240Z,20.11
2022-09-14T14:03:24.812Z,20.08
2022-09-14T14:08:38.357Z,20.09
2022-09-14T14:13:41.822Z,20.06
2022-09-14T14:18:59.003Z,20.04
2022-09-14T14:24:27.277Z,20.02
2022-09-14T14:29:30.949Z,19.93
2022-09-14T14:34:34.304Z,19.76
2022-09-14T14:39:37.702Z,19.53
2022-09-14T14:44:42.918Z,19.28
2022-09-14T14:49:47.310Z,19.06
2022-09-14T14:54:50.555Z,18.83
2022-09-14T14:59:53.719Z,18.69
2022-09-14T15:04:57.227Z,18.61
2022-09-14T15:10:00.789Z,18.62
2022-09-14T15:15:04.947Z,18.63
2022-09-14T15:20:10.204Z,18.61
2022-09-14T15:25:16.009Z,18.55
2022-09-14T15:30:19.467Z,18.49
2022-09-14T15:35:26.028Z,18.42
2022-09-14T15:40:29.536Z,18.32
2022-09-14T15:45:32.924Z,18.22
2022-09-14T15:50:42.054Z,18.13
2022-09-14T15:55:45.921Z,18.07
2022-09-14T16:00:49.277Z,17.99
2022-09-14T16:05:53.071Z,17.88
2022-09-14T16:11:02.328Z,17.78
2022-09-14T16:16:08.002Z,17.69
2022-09-14T16:21:19.269Z,17.60
2022-09-14T16:26:29.064Z,17.49
2022-09-14T16:31:37.808Z,17.34
2022-09-14T16:36:42.562Z,17.13
2022-09-14T16:41:46.795Z,16.88
2022-09-14T16:46:52.419Z,16.62
2022-09-14T16:52:00.842Z,16.36
2022-09-14T16:57:04.257Z,16.10
2022-09-14T17:02:11.899Z,15.89
2022-09-14T17:07:15.846Z,15.70
2022-09-14T17:12:19.135Z,15.50
2022-09-14T17:17:26.356Z,15.29
2022-09-14T17:22:29.516Z,15.10
2022-09-14T17:27:32.832Z,14.90
2022-09-14T17:32:36.406Z,14.76
2022-09-14T17:37:39.636Z,14.68
2022-09-14T17:42:43.061Z,14.66
2022-09-14T17:47:46.841Z,14.62
2022-09-14T17:52:51.544Z,14.58
2022-09-14T17:57:57.011Z,14.55
2022-09-14T18:03:00.368Z,14.54
2022-09-14T18:08:04.132Z,14.51
2022-09-14T18:13:07.493Z,14.48
2022-09-14T18:18:11.137Z,14.48
2022-09-14T18:23:14.475Z,14.47
2022-09-14T18:28:17.989Z,14.46
2022-09-14T18:33:21.424Z,14.44
2022-09-14T18:38:30.553Z,14.44
2022-09-14T18:43:35.587Z,14.41
2022-09-14T18:48:41.096Z,14.39
2022-09-14T18:53:44.452Z,14.37
2022-09-14T18:58:48.259Z,14.35
2022-09-14T19:03:52.358Z,14.35
2022-09-14T19:08:55.856Z,14.33
2022-09-14T19:14:09.607Z,14.27
2022-09-14T19:19:15.623Z,14.17
2022-09-14T19:24:19.213Z,14.02
2022-09-14T19:29:24.262Z,13.84
2022-09-14T19:34:29.437Z,13.64
2022-09-14T19:39:32.791Z,13.48
2022-09-14T19:44:36.193Z,13.38
2022-09-14T19:49:39.426Z,13.34
2022-09-14T19:54:42.717Z,13.33
2022-09-14T19:59:46.534Z,13.36
2022-09-14T20:04:49.759Z,13.41
2022-09-14T20:09:53.743Z,13.47
2022-09-14T20:14:56.963Z,13.51
2022-09-14T20:20:00.093Z,13.55
2022-09-14T20:25:04.166Z,13.58
2022-09-14T20:30:09.001Z,13.62
2022-09-14T20:35:12.363Z,13.65
2022-09-14T20:40:18.524Z,13.70
2022-09-14T20:45:21.731Z,13.75
2022-09-14T20:50:27.292Z,13.81
2022-09-14T20:55:33.581Z,13.85
2022-09-14T21:00:36.886Z,13.88
2022-09-14T21:05:40.460Z,13.91
2022-09-14T21:10:43.675Z,13.94
2022-09-14T21:15:49.177Z,13.97
2022-09-14T21:20:52.381Z,13.99
2022-09-14T21:25:57.089Z,13.99
2022-09-14T21:31:09.198Z,14.01
2022-09-14T21:36:22.367Z,14.00
2022-09-14T21:41:28.057Z,14.01
2022-09-14T21:46:32.580Z,14.01
2022-09-14T21:51:37.419Z,14.02
2022-09-14T21:56:43.203Z,14.02
2022-09-14T22:01:48.031Z,14.01
2022-09-14T22:06:52.108Z,14.01
2022-09-14T22:11:56.602Z,14.01
2022-09-14T22:16:59.924Z,14.00
2022-09-14T22:22:04.067Z,13.99
2022-09-14T22:27:13.203Z,13.99
2022-09-14T22:32:16.465Z,13.99
2022-09-14T22:37:19.758Z,13.99
2022-09-14T22:42:24.207Z,13.97
2022-09-14T22:47:27.531Z,13.96
2022-09-14T22:52:30.743Z,13.94
2022-09-14T22:57:34.358Z,13.92
2022-09-14T23:02:37.534Z,13.92
2022-09-14T23:07:40.753Z,13.92
2022-09-14T23:12:44.005Z,13.92
2022-09-14T23:17:51.911Z,13.93
2022-09-14T23:22:55.875Z,13.92
2022-09-14T23:27:59.171Z,13.88
2022-09-14T23:33:02.676Z,13.85
2022-09-14T23:38:08.412Z,13.83
2022-09-14T23:43:12.014Z,13.82
2022-09-14T23:48:16.164Z,13.81
2022-09-14T23:53:19.332Z,13.79
2022-09-14T23:58:23.342Z,13.77
